createdAt,value
2023-04-05T00:02:32.631Z,21.27
2023-04-05T00:05:29.412Z,14.55
2023-04-05T00:08:23.417Z,17.38
2023-04-05T00:11:10.461Z,9.15
2023-04-05T00:13:57.142Z,7.03
2023-04-05T00:16:43.357Z,8.48
2023-04-05T00:19:33.955Z,6.43
2023-04-05T00:22:20.302Z,8.30
2023-04-05T00:25:06.520Z,11.07
2023-04-05T00:27:52.107Z,13.35
2023-04-05T00:30:37.684Z,11.90
2023-04-05T00:33:23.425Z,11.60
2023-04-05T00:36:12.944Z,14.50
2023-04-05T00:38:58.637Z,9.80
2023-04-05T00:41:46.301Z,14.63
2023-04-05T00:44:36.590Z,9.13
2023-04-05T00:47:22.306Z,14.40
2023-04-05T00:50:10.250Z,9.25
2023-04-05T00:52:56.870Z,13.65
2023-04-05T00:55:42.818Z,10.80
2023-04-05T00:58:28.486Z,11.55
2023-04-05T01:01:19.611Z,12.25
2023-04-05T01:04:07.342Z,10.23
2023-04-05T01:07:09.327Z,9.30
2023-04-05T01:09:57.648Z,13.57
2023-04-05T01:12:44.359Z,12.23
2023-04-05T01:15:30.105Z,6.15
2023-04-05T01:18:15.532Z,9.48
2023-04-05T01:21:20.985Z,7.00
2023-04-05T01:24:41.565Z,8.85
2023-04-05T01:27:56.140Z,8.07
2023-04-05T01:31:08.946Z,4.15
2023-04-05T01:34:06.377Z,8.07
2023-04-05T01:36:58.221Z,5.97
2023-04-05T01:39:50.604Z,5.57
2023-04-05T01:42:36.516Z,7.28
2023-04-05T01:45:22.226Z,7.70
2023-04-05T01:48:07.774Z,6.00
2023-04-05T01:50:53.322Z,9.98
2023-04-05T01:53:38.750Z,4.97
2023-04-05T01:56:25.989Z,5.47
2023-04-05T01:59:12.042Z,8.57
2023-04-05T02:01:58.205Z,10.02
2023-04-05T02:04:43.714Z,12.80
2023-04-05T02:07:29.125Z,14.02
2023-04-05T02:10:15.932Z,12.90
2023-04-05T02:13:02.361Z,6.68
2023-04-05T02:15:50.435Z,6.80
2023-04-05T02:18:38.682Z,8.25
2023-04-05T02:21:26.208Z,6.03
2023-04-05T02:24:11.880Z,7.88
2023-04-05T02:26:58.056Z,6.25
2023-04-05T02:29:45.005Z,8.93
2023-04-05T02:32:32.046Z,5.32
2023-04-05T02:35:17.681Z,9.75
2023-04-05T02:38:04.885Z,7.65
2023-04-05T02:40:52.692Z,9.55
2023-04-05T02:43:38.498Z,9.55
2023-04-05T02:46:24.013Z,9.20
2023-04-05T02:49:10.251Z,13.07
2023-04-05T02:51:56.185Z,7.20
2023-04-05T02:54:43.377Z,12.50
2023-04-05T02:57:29.175Z,5.97
2023-04-05T03:00:22.626Z,8.45
2023-04-05T03:03:11.257Z,8.50
2023-04-05T03:06:13.656Z,4.85
2023-04-05T03:09:07.744Z,5.63
2023-04-05T03:11:53.435Z,10.63
2023-04-05T03:14:39.523Z,9.82
2023-04-05T03:17:27.239Z,10.02
2023-04-05T03:20:20.755Z,12.30
2023-04-05T03:23:09.083Z,9.80
2023-04-05T03:25:58.026Z,8.13
2023-04-05T03:28:46.598Z,6.75
2023-04-05T03:31:36.348Z,7.22
2023-04-05T03:34:29.023Z,8.02
2023-04-05T03:37:20.501Z,6.20
2023-04-05T03:40:17.253Z,7.70
2023-04-05T03:43:05.918Z,5.93
2023-04-05T03:45:51.302Z,7.93
2023-04-05T03:48:36.682Z,6.00
2023-04-05T03:51:23.258Z,5.45
2023-04-05T03:54:33.403Z,7.30
2023-04-05T03:57:32.054Z,10.20
2023-04-05T04:00:39.416Z,8.27
2023-04-05T04:04:02.560Z,9.43
2023-04-05T04:06:49.441Z,6.82
2023-04-05T04:09:42.902Z,5.20
2023-04-05T04:12:30.790Z,6.43
2023-04-05T04:15:19.183Z,19.33
2023-04-05T04:18:25.491Z,14.35
2023-04-05T04:21:36.917Z,10.60
2023-04-05T04:24:40.799Z,8.30
2023-04-05T04:27:57.526Z,15.50
2023-04-05T04:31:27.578Z,13.18
2023-04-05T04:34:35.869Z,23.42
2023-04-05T04:37:30.347Z,20.13
2023-04-05T04:40:41.185Z,22.70
2023-04-05T04:43:53.515Z,13.93
2023-04-05T04:47:17.687Z,29.15
2023-04-05T04:50:26.557Z,46.50
2023-04-05T04:53:13.923Z,32.90
2023-04-05T04:55:59.602Z,31.25
2023-04-05T04:58:45.518Z,27.77
2023-04-05T05:01:31.762Z,15.20
2023-04-05T05:04:18.066Z,23.98
2023-04-05T05:07:20.733Z,18.75
2023-04-05T05:10:34.081Z,14.68
2023-04-05T05:13:56.685Z,13.50
2023-04-05T05:16:53.213Z,14.93
2023-04-05T05:19:41.289Z,12.30
2023-04-05T05:22:30.220Z,12.70
2023-04-05T05:25:30.066Z,15.90
2023-04-05T05:28:49.282Z,15.02
2023-04-05T05:31:35.825Z,12.18
2023-04-05T05:34:22.272Z,11.10
2023-04-05T05:37:14.902Z,12.50
2023-04-05T05:40:00.768Z,13.40
2023-04-05T05:42:46.453Z,16.02
2023-04-05T05:45:33.130Z,12.20
2023-04-05T05:48:18.645Z,11.10
2023-04-05T05:51:10.076Z,9.27
2023-04-05T05:53:56.475Z,12.35
2023-04-05T05:56:43.489Z,12.63
2023-04-05T05:59:29.666Z,11.02
2023-04-05T06:02:20.358Z,11.30
2023-04-05T06:05:07.099Z,11.50
2023-04-05T06:07:52.896Z,15.60
2023-04-05T06:10:39.446Z,12.65
2023-04-05T06:13:38.518Z,12.13
2023-04-05T06:16:24.449Z,10.45
2023-04-05T06:19:10.905Z,12.77
2023-04-05T06:21:56.471Z,11.50
2023-04-05T06:24:42.105Z,13.65
2023-04-05T06:27:28.463Z,12.60
2023-04-05T06:30:15.535Z,11.50
2023-04-05T06:33:18.545Z,13.45
2023-04-05T06:37:00.741Z,12.13
2023-04-05T06:39:49.971Z,15.52
2023-04-05T06:42:51.733Z,10.10
2023-04-05T06:46:24.345Z,11.18
2023-04-05T06:49:14.069Z,12.23
2023-04-05T06:52:03.694Z,14.23
2023-04-05T06:54:50.104Z,10.00
2023-04-05T06:57:36.633Z,8.80
2023-04-05T07:00:23.672Z,11.40
2023-04-05T07:03:29.525Z,7.43
2023-04-05T07:06:15.733Z,10.63
2023-04-05T07:09:02.060Z,6.78
2023-04-05T07:11:49.141Z,10.10
2023-04-05T07:14:48.248Z,10.57
2023-04-05T07:17:35.134Z,9.38
2023-04-05T07:20:21.261Z,7.63
2023-04-05T07:23:07.314Z,8.48
2023-04-05T07:26:08.706Z,8.93
2023-04-05T07:28:55.168Z,6.50
2023-04-05T07:31:41.656Z,6.65
2023-04-05T07:34:28.712Z,12.55
2023-04-05T07:37:16.015Z,5.07
2023-04-05T07:40:12.245Z,4.72
2023-04-05T07:42:58.113Z,4.28
2023-04-05T07:45:43.497Z,3.38
2023-04-05T07:48:29.669Z,3.08
2023-04-05T07:51:16.132Z,4.20
2023-04-05T07:54:03.235Z,2.75
2023-04-05T07:56:52.595Z,3.72
2023-04-05T07:59:38.189Z,3.22
2023-04-05T08:02:24.249Z,3.45
2023-04-05T08:05:11.118Z,3.83
2023-04-05T08:07:58.708Z,3.28
2023-04-05T08:10:45.483Z,3.28
2023-04-05T08:13:34.245Z,4.43
2023-04-05T08:16:20.170Z,1.90
2023-04-05T08:19:06.598Z,2.60
2023-04-05T08:21:53.868Z,4.40
2023-04-05T08:24:45.677Z,3.50
2023-04-05T08:27:31.429Z,1.70
2023-04-05T08:30:20.067Z,4.68
2023-04-05T08:33:06.426Z,5.20
2023-04-05T08:35:52.500Z,3.45
2023-04-05T08:38:38.150Z,2.72
2023-04-05T08:41:41.184Z,3.80
2023-04-05T08:44:31.161Z,2.00
2023-04-05T08:47:19.583Z,1.90
2023-04-05T08:50:06.992Z,3.15
2023-04-05T08:52:52.421Z,2.30
2023-04-05T08:55:41.421Z,1.65
2023-04-05T08:58:28.370Z,3.72
2023-04-05T09:01:14.177Z,1.70
2023-04-05T09:04:09.710Z,1.58
2023-04-05T09:06:59.252Z,2.10
2023-04-05T09:09:49.163Z,1.92
2023-04-05T09:12:36.499Z,1.10
2023-04-05T09:18:27.368Z,1.98
2023-04-05T09:21:15.511Z,1.50
2023-04-05T09:24:01.310Z,1.63
2023-04-05T09:26:49.490Z,1.30
2023-04-05T09:29:35.138Z,1.35
2023-04-05T09:32:29.266Z,1.73
2023-04-05T09:35:30.827Z,2.15
2023-04-05T09:38:16.566Z,2.83
2023-04-05T09:41:09.867Z,3.22
2023-04-05T09:43:55.500Z,3.22
2023-04-05T09:46:41.835Z,1.75
2023-04-05T09:49:34.373Z,3.83
2023-04-05T09:52:24.512Z,3.40
2023-04-05T09:55:10.994Z,6.50
2023-04-05T09:57:57.016Z,2.20
2023-04-05T10:01:00.137Z,2.80
2023-04-05T10:03:49.758Z,2.53
2023-04-05T10:06:43.034Z,2.75
2023-04-05T10:09:29.115Z,3.05
2023-04-05T10:12:29.417Z,3.50
2023-04-05T10:15:16.579Z,2.97
2023-04-05T10:18:11.141Z,3.05
2023-04-05T10:20:58.324Z,2.90
2023-04-05T10:23:47.491Z,5.38
2023-04-05T10:27:04.597Z,3.17
2023-04-05T10:30:08.946Z,5.88
2023-04-05T10:33:14.125Z,6.55
2023-04-05T10:36:16.456Z,3.63
2023-04-05T10:39:26.360Z,4.90
2023-04-05T10:42:18.312Z,4.18
2023-04-05T10:45:10.025Z,5.18
2023-04-05T10:48:15.744Z,5.05
2023-04-05T10:51:01.881Z,4.90
2023-04-05T10:53:49.347Z,4.82
2023-04-05T10:56:37.784Z,5.60
2023-04-05T10:59:23.992Z,5.93
2023-04-05T11:02:10.506Z,7.85
2023-04-05T11:04:57.063Z,5.05
2023-04-05T11:07:44.833Z,4.78
2023-04-05T11:10:32.250Z,4.65
2023-04-05T11:13:17.695Z,5.03
2023-04-05T11:16:10.216Z,3.42
2023-04-05T11:18:56.239Z,4.38
2023-04-05T11:21:41.647Z,3.63
2023-04-05T11:24:49.592Z,4.13
2023-04-05T11:27:41.115Z,3.80
2023-04-05T11:30:51.518Z,3.13
2023-04-05T11:33:55.365Z,4.80
2023-04-05T11:36:48.248Z,5.32
2023-04-05T11:39:33.967Z,4.38
2023-04-05T11:42:19.974Z,4.95
2023-04-05T11:45:06.192Z,4.40
2023-04-05T11:47:51.908Z,6.63
2023-04-05T11:50:39.407Z,5.07
2023-04-05T11:53:25.017Z,6.18
2023-04-05T11:56:13.422Z,7.63
2023-04-05T11:59:00.301Z,6.53
2023-04-05T12:01:46.122Z,6.47
2023-04-05T12:04:31.953Z,3.85
2023-04-05T12:07:19.818Z,6.15
2023-04-05T12:10:14.032Z,6.05
2023-04-05T12:13:00.109Z,11.27
2023-04-05T12:15:45.810Z,7.10
2023-04-05T12:18:33.667Z,6.45
2023-04-05T12:21:19.915Z,8.18
2023-04-05T12:24:06.076Z,3.67
2023-04-05T12:26:54.178Z,4.43
2023-04-05T12:30:05.898Z,7.40
2023-04-05T12:32:53.591Z,3.50
2023-04-05T12:35:39.744Z,3.35
2023-04-05T12:38:29.698Z,3.50
2023-04-05T12:41:30.637Z,3.72
2023-04-05T12:44:27.871Z,4.80
2023-04-05T12:47:15.344Z,3.33
2023-04-05T12:50:16.001Z,4.35
2023-04-05T12:53:06.265Z,4.00
2023-04-05T12:55:53.345Z,3.45
2023-04-05T12:58:40.271Z,4.28
2023-04-05T13:01:26.042Z,3.00
2023-04-05T13:04:16.556Z,2.90
2023-04-05T13:07:02.138Z,10.35
2023-04-05T13:09:47.593Z,5.40
2023-04-05T13:12:33.437Z,2.97
2023-04-05T13:15:19.444Z,4.15
2023-04-05T13:18:06.328Z,7.22
2023-04-05T13:20:52.177Z,4.93
2023-04-05T13:23:39.394Z,4.97
2023-04-05T13:26:25.990Z,2.80
2023-04-05T13:29:11.626Z,4.07
2023-04-05T13:31:57.023Z,5.28
2023-04-05T13:34:42.651Z,5.53
2023-04-05T13:37:28.341Z,4.35
2023-04-05T13:40:14.129Z,5.18
2023-04-05T13:42:59.789Z,6.55
2023-04-05T13:45:45.597Z,4.65
2023-04-05T13:48:31.452Z,4.93
2023-04-05T13:51:16.971Z,7.53
2023-04-05T13:54:02.849Z,6.43
2023-04-05T13:56:48.707Z,5.07
2023-04-05T13:59:34.193Z,4.72
2023-04-05T14:02:20.844Z,6.47
2023-04-05T14:05:07.617Z,2.08
2023-04-05T14:07:53.433Z,3.67
2023-04-05T14:10:40.491Z,3.92
2023-04-05T14:13:26.140Z,3.78
2023-04-05T14:16:12.419Z,2.85
2023-04-05T14:18:57.955Z,4.35
2023-04-05T14:21:43.792Z,4.28
2023-04-05T14:24:29.311Z,5.15
2023-04-05T14:27:14.698Z,4.72
2023-04-05T14:30:00.435Z,4.03
2023-04-05T14:32:46.288Z,4.25
2023-04-05T14:35:31.721Z,4.20
2023-04-05T14:38:17.015Z,4.30
2023-04-05T14:41:02.515Z,5.85
2023-04-05T14:43:48.003Z,4.75
2023-04-05T14:46:33.348Z,4.40
2023-04-05T14:49:18.783Z,4.25
2023-04-05T14:52:04.816Z,5.97
2023-04-05T14:54:50.229Z,3.35
2023-04-05T14:57:36.117Z,2.75
2023-04-05T15:00:21.688Z,4.40
2023-04-05T15:03:07.501Z,3.88
2023-04-05T15:05:53.167Z,4.68
2023-04-05T15:08:38.393Z,4.60
2023-04-05T15:11:23.887Z,5.93
2023-04-05T15:14:18.219Z,6.95
2023-04-05T15:17:15.088Z,6.57
2023-04-05T15:20:01.206Z,2.92
2023-04-05T15:22:46.394Z,10.82
2023-04-05T15:25:32.015Z,3.67
2023-04-05T15:28:17.996Z,4.60
2023-04-05T15:31:03.833Z,3.75
2023-04-05T15:33:49.672Z,3.15
2023-04-05T15:36:36.195Z,5.03
2023-04-05T15:39:22.295Z,5.97
2023-04-05T15:42:08.257Z,6.75
2023-04-05T15:44:54.212Z,8.70
2023-04-05T15:47:41.196Z,5.13
2023-04-05T15:50:27.481Z,8.80
2023-04-05T15:53:13.532Z,10.25
2023-04-05T15:55:59.479Z,6.28
2023-04-05T15:58:45.472Z,5.68
2023-04-05T16:01:31.181Z,4.45
2023-04-05T16:04:17.834Z,4.93
2023-04-05T16:07:03.829Z,3.42
2023-04-05T16:09:49.157Z,6.25
2023-04-05T16:12:34.893Z,4.45
2023-04-05T16:15:21.567Z,5.22
2023-04-05T16:18:09.195Z,4.95
2023-04-05T16:20:57.981Z,4.55
2023-04-05T16:23:56.124Z,3.22
2023-04-05T16:26:50.133Z,4.15
2023-04-05T16:29:37.559Z,9.23
2023-04-05T16:32:24.667Z,2.75
2023-04-05T16:35:10.586Z,3.60
2023-04-05T16:37:58.228Z,5.88
2023-04-05T16:40:44.445Z,6.03
2023-04-05T16:43:33.174Z,6.05
2023-04-05T16:46:19.485Z,5.05
2023-04-05T16:49:05.977Z,4.28
2023-04-05T16:51:51.939Z,5.32
2023-04-05T16:54:40.478Z,5.18
2023-04-05T16:57:29.502Z,4.05
2023-04-05T17:00:15.813Z,3.45
2023-04-05T17:03:01.977Z,3.55
2023-04-05T17:05:47.338Z,4.78
2023-04-05T17:08:32.749Z,4.30
2023-04-05T17:11:18.309Z,2.80
2023-04-05T17:14:05.584Z,3.03
2023-04-05T17:16:51.522Z,5.00
2023-04-05T17:19:37.324Z,3.17
2023-04-05T17:22:22.907Z,4.25
2023-04-05T17:25:09.009Z,3.60
2023-04-05T17:27:54.453Z,4.22
2023-04-05T17:30:39.941Z,7.32
2023-04-05T17:33:25.570Z,11.57
2023-04-05T17:36:11.980Z,11.57
2023-04-05T17:38:57.843Z,9.80
2023-04-05T17:41:44.587Z,14.93
2023-04-05T17:44:30.639Z,10.93
2023-04-05T17:47:16.302Z,6.95
2023-04-05T17:50:02.082Z,6.20
2023-04-05T17:52:47.756Z,7.90
2023-04-05T17:55:33.966Z,4.72
2023-04-05T17:58:19.840Z,4.00
2023-04-05T18:01:06.034Z,6.63
2023-04-05T18:03:51.740Z,4.32
2023-04-05T18:06:37.491Z,4.72
2023-04-05T18:09:23.196Z,3.97
2023-04-05T18:12:12.993Z,5.03
2023-04-05T18:14:58.515Z,6.07
2023-04-05T18:17:45.644Z,6.60
2023-04-05T18:20:31.350Z,7.25
2023-04-05T18:23:17.980Z,8.40
2023-04-05T18:26:07.639Z,5.93
2023-04-05T18:28:59.806Z,3.30
2023-04-05T18:31:48.062Z,4.72
2023-04-05T18:34:36.456Z,3.42
2023-04-05T18:37:24.562Z,5.38
2023-04-05T18:40:12.803Z,6.35
2023-04-05T18:42:58.670Z,9.07
2023-04-05T18:45:46.221Z,6.95
2023-04-05T18:48:31.817Z,8.20
2023-04-05T18:51:17.248Z,8.35
2023-04-05T18:54:03.481Z,8.85
2023-04-05T18:56:49.149Z,8.43
2023-04-05T18:59:34.564Z,4.30
2023-04-05T19:02:20.211Z,9.40
2023-04-05T19:05:06.488Z,4.32
2023-04-05T19:07:52.302Z,10.55
2023-04-05T19:10:38.322Z,5.28
2023-04-05T19:13:24.414Z,4.18
2023-04-05T19:16:10.382Z,3.95
2023-04-05T19:18:56.277Z,7.25
2023-04-05T19:21:42.236Z,5.35
2023-04-05T19:24:28.483Z,7.97
2023-04-05T19:27:14.317Z,16.48
2023-04-05T19:30:00.278Z,10.07
2023-04-05T19:32:47.290Z,13.60
2023-04-05T19:35:36.044Z,10.50
2023-04-05T19:38:22.622Z,10.40
2023-04-05T19:41:08.532Z,6.63
2023-04-05T19:43:54.182Z,8.48
2023-04-05T19:46:41.353Z,9.15
2023-04-05T19:49:42.492Z,9.88
2023-04-05T19:52:46.845Z,13.93
2023-04-05T19:55:37.181Z,9.75
2023-04-05T19:58:28.281Z,9.70
2023-04-05T20:01:35.504Z,13.70
2023-04-05T20:04:25.100Z,6.10
2023-04-05T20:07:11.225Z,6.82
2023-04-05T20:09:58.272Z,6.80
2023-04-05T20:12:43.748Z,6.93
2023-04-05T20:15:38.534Z,9.57
2023-04-05T20:18:26.599Z,6.55
2023-04-05T20:21:12.883Z,5.22
2023-04-05T20:24:01.474Z,10.00
2023-04-05T20:26:48.090Z,8.85
2023-04-05T20:29:36.288Z,8.77
2023-04-05T20:32:24.787Z,6.10
2023-04-05T20:35:34.974Z,13.57
2023-04-05T20:38:31.066Z,10.32
2023-04-05T20:41:19.130Z,15.98
2023-04-05T20:44:14.962Z,8.93
2023-04-05T20:47:10.447Z,7.75
2023-04-05T20:49:56.432Z,7.28
2023-04-05T20:52:43.169Z,3.28
2023-04-05T20:55:36.355Z,8.40
2023-04-05T20:58:23.718Z,5.60
2023-04-05T21:01:09.990Z,6.53
2023-04-05T21:03:55.891Z,5.35
2023-04-05T21:06:42.475Z,5.07
2023-04-05T21:09:28.482Z,4.07
2023-04-05T21:12:14.058Z,7.80
2023-04-05T21:15:00.390Z,9.15
2023-04-05T21:17:46.258Z,7.35
2023-04-05T21:20:32.160Z,8.75
2023-04-05T21:23:18.595Z,13.18
2023-04-05T21:26:07.307Z,10.05
2023-04-05T21:28:52.971Z,13.60
2023-04-05T21:31:38.418Z,16.60
2023-04-05T21:34:24.512Z,14.18
2023-04-05T21:37:10.438Z,14.13
2023-04-05T21:39:56.376Z,11.20
2023-04-05T21:42:42.109Z,14.15
2023-04-05T21:45:27.762Z,7.70
2023-04-05T21:48:13.675Z,10.60
2023-04-05T21:50:59.200Z,12.77
2023-04-05T21:53:44.808Z,11.90
2023-04-05T21:56:30.382Z,14.05
2023-04-05T21:59:16.527Z,9.48
2023-04-05T22:02:02.003Z,8.38
2023-04-05T22:04:47.490Z,10.43
2023-04-05T22:07:33.219Z,11.35
2023-04-05T22:10:19.296Z,13.63
2023-04-05T22:13:04.717Z,9.23
2023-04-05T22:15:50.404Z,7.28
2023-04-05T22:18:36.205Z,8.68
2023-04-05T22:21:22.092Z,10.65
2023-04-05T22:24:11.300Z,11.20
2023-04-05T22:26:57.526Z,9.55
2023-04-05T22:29:43.321Z,5.07
2023-04-05T22:32:32.101Z,8.48
2023-04-05T22:35:18.340Z,7.53
2023-04-05T22:38:04.106Z,9.00
2023-04-05T22:40:49.720Z,9.73
2023-04-05T22:43:35.506Z,19.08
2023-04-05T22:46:21.568Z,15.35
2023-04-05T22:49:07.835Z,13.15
2023-04-05T22:51:53.396Z,6.55
2023-04-05T22:54:39.049Z,8.13
2023-04-05T22:57:24.394Z,12.85
2023-04-05T23:00:10.861Z,15.73
2023-04-05T23:02:56.522Z,6.57
2023-04-05T23:05:42.093Z,9.02
2023-04-05T23:08:27.596Z,11.95
2023-04-05T23:11:14.539Z,8.00
2023-04-05T23:13:59.947Z,7.28
2023-04-05T23:16:45.479Z,5.18
2023-04-05T23:19:32.270Z,10.20
2023-04-05T23:22:17.941Z,5.28
2023-04-05T23:25:04.483Z,7.85
2023-04-05T23:27:49.993Z,6.90
2023-04-05T23:30:35.655Z,4.43
2023-04-05T23:33:21.239Z,5.32
2023-04-05T23:36:07.748Z,7.60
2023-04-05T23:38:53.367Z,4.47
2023-04-05T23:41:39.338Z,6.90
2023-04-05T23:44:24.826Z,4.72
2023-04-05T23:47:10.513Z,3.47
2023-04-05T23:49:56.655Z,5.25
2023-04-05T23:52:42.724Z,7.85
2023-04-05T23:55:30.148Z,6.60
2023-04-05T23:58:17.271Z,6.10
